KMDH/MDH METAR and TAF weather

Enter ICAO airport designator
Station Type Date Time Source
KMDH METAR 2019/12/10 18:52 UTC NOAA

KMDH 101852Z 30004KT 10SM CLR M01/M11 A3031 RMK AO2 SLP268 T10111106


Station Type Date Time Source
KMDH Decoded METAR 2019/12/10 18:52 UTC NOAA

SOUTHERN ILLINOIS AIRPORT, IL, United States (KMDH) 37-47N 089-15W 130M
Dec 10, 2019 - 01:52 PM EST / 2019.12.10 1852 UTC
Wind: from the WNW (300 degrees) at 5 MPH (4 KT):0
Visibility: 10 mile(s):0
Sky conditions: clear
Temperature: 30.0 F (-1.1 C)
Windchill: 24 F (-4 C):1
Dew Point: 12.9 F (-10.6 C)
Relative Humidity: 48%
Pressure (altimeter): 30.31 in. Hg (1026 hPa)
ob: KMDH 101852Z 30004KT 10SM CLR M01/M11 A3031 RMK AO2 SLP268 T10111106
cycle: 19

Station Type Date Time Source
KMDH TAF UTC NOAA

Error!

Example: see airport list